Time;durP1;ratioP1;P1;durP2;ratioP2;P2;SDS_P1;SDS_P2;PMS_P1;PMS_P2;Temp;Humidity;BMP_temperature;BMP_pressure;BME280_temperature;BME280_humidity;BME280_pressure;Samples;Min_cycle;Max_cycle;Signal;HPM_P1;HPM_P2
2021/07/01 00:01:14;;;;;;;1.45;1.27;;;;;;;17.68;78.02;99884.77;5048759;57;1136740;-79
2021/07/01 00:06:20;;;;;;;3.33;1.60;;;;;;;17.66;78.00;99885.95;5067464;57;1136858;-82
2021/07/01 00:11:25;;;;;;;4.47;1.73;;;;;;;17.63;77.92;99895.64;5067078;57;1136661;-79
2021/07/01 00:16:31;;;;;;;2.00;1.90;;;;;;;17.59;78.38;99891.16;5067137;57;1136755;-80
2021/07/01 00:21:37;;;;;;;4.23;2.10;;;;;;;17.57;78.36;99886.48;5066974;57;1136699;-80
2021/07/01 00:26:43;;;;;;;1.67;1.53;;;;;;;17.52;78.74;99884.37;5067007;57;1136972;-81
2021/07/01 00:31:49;;;;;;;2.10;2.00;;;;;;;17.44;79.66;99884.92;5066098;57;1137355;-81
2021/07/01 00:36:54;;;;;;;4.70;1.97;;;;;;;17.42;79.41;99880.25;5066388;57;1137115;-80
2021/07/01 00:42:00;;;;;;;1.47;1.37;;;;;;;17.37;79.76;99882.65;5066506;57;1136916;-79
2021/07/01 00:47:06;;;;;;;6.30;2.47;;;;;;;17.30;80.89;99899.89;5066354;57;1136777;-81
2021/07/01 00:52:13;;;;;;;3.10;2.72;;;;;;;17.27;80.73;99888.71;5067339;57;1136840;-81
2021/07/01 00:57:18;;;;;;;2.12;2.02;;;;;;;17.29;80.53;99897.39;5067057;57;1136916;-82
2021/07/01 01:02:24;;;;;;;3.17;2.53;;;;;;;17.28;80.95;99884.53;5067779;57;1136702;-80
2021/07/01 01:07:29;;;;;;;5.33;2.53;;;;;;;17.28;81.25;99881.86;5076890;57;1136648;-82
2021/07/01 01:12:36;;;;;;;2.20;2.10;;;;;;;17.28;80.96;99879.69;5076481;57;1136630;-83
2021/07/01 01:17:44;;;;;;;7.50;2.83;;;;;;;17.27;81.61;99876.69;5059017;57;1137007;-80
2021/07/01 01:22:52;;;;;;;4.87;2.87;;;;;;;17.26;81.48;99881.73;4950337;57;1136702;-82
2021/07/01 01:27:57;;;;;;;3.77;2.83;;;;;;;17.19;82.77;99878.92;4915492;58;1136821;-81
2021/07/01 01:33:07;;;;;;;3.27;2.98;;;;;;;17.15;82.50;99872.26;4968648;58;1136716;-81
2021/07/01 01:38:16;;;;;;;3.37;2.87;;;;;;;17.11;82.96;99867.77;4932283;58;1137039;-82
2021/07/01 01:43:23;;;;;;;7.17;4.00;;;;;;;17.13;83.13;99872.94;4918439;59;1136706;-81
2021/07/01 01:48:29;;;;;;;5.14;3.92;;;;;;;17.13;82.90;99870.27;4918327;59;1136833;-81
2021/07/01 01:53:35;;;;;;;4.60;4.20;;;;;;;17.11;83.44;99874.45;4869878;59;1136815;-80
2021/07/01 01:58:41;;;;;;;7.63;5.43;;;;;;;17.10;83.50;99858.63;4846122;58;1136732;-80
2021/07/01 02:04:05;;;;;;;6.70;4.10;;;;;;;17.09;83.09;99851.61;4956180;58;1136963;-80
2021/07/01 02:09:19;;;;;;;9.43;4.53;;;;;;;17.07;83.11;99853.63;4910602;58;1136807;-79
2021/07/01 02:14:27;;;;;;;6.80;4.60;;;;;;;17.04;83.34;99844.12;4855580;59;1136820;-82
2021/07/01 02:19:35;;;;;;;5.30;4.80;;;;;;;17.03;83.45;99833.10;4826484;59;1136692;-81
2021/07/01 02:24:43;;;;;;;6.40;4.70;;;;;;;17.03;83.47;99837.11;4871592;59;1136684;-81
2021/07/01 02:29:49;;;;;;;4.77;4.20;;;;;;;17.03;83.40;99825.59;4871782;58;1136986;-82
2021/07/01 02:34:56;;;;;;;6.83;4.83;;;;;;;17.01;83.02;99831.11;4872019;59;1136729;-79
2021/07/01 02:40:22;;;;;;;8.60;5.53;;;;;;;16.98;82.90;99824.78;4871926;59;1136854;-82
2021/07/01 02:45:39;;;;;;;5.40;3.57;;;;;;;16.99;82.53;99821.60;4787342;60;1136924;-79
2021/07/01 02:50:54;;;;;;;3.63;3.33;;;;;;;16.97;82.46;99833.80;4776416;60;1136936;-79
2021/07/01 02:55:59;;;;;;;6.10;4.75;;;;;;;16.93;83.07;99837.02;4855890;60;1136937;-80
2021/07/01 03:01:06;;;;;;;7.40;5.10;;;;;;;16.94;82.89;99850.70;4861142;60;1136792;-82
2021/07/01 03:06:11;;;;;;;7.85;4.50;;;;;;;16.96;82.75;99865.52;4855885;60;1137020;-79
2021/07/01 03:11:18;;;;;;;5.85;4.60;;;;;;;16.98;82.47;99868.02;4830655;58;1136881;-82
2021/07/01 03:16:24;;;;;;;13.55;5.92;;;;;;;17.00;82.73;99872.69;4831393;58;1136682;-80
2021/07/01 03:21:30;;;;;;;6.47;4.80;;;;;;;17.04;82.25;99872.17;4835723;58;1139016;-81
2021/07/01 03:26:37;;;;;;;9.03;5.17;;;;;;;17.11;82.23;99861.09;4835641;58;1136707;-81
2021/07/01 03:31:43;;;;;;;3.97;3.20;;;;;;;17.15;81.92;99854.39;4835403;58;1136816;-81
2021/07/01 03:36:50;;;;;;;6.30;4.63;;;;;;;17.12;82.44;99859.25;4851840;58;1136734;-80
2021/07/01 03:42:16;;;;;;;3.80;3.53;;;;;;;17.11;82.01;99858.41;4961745;58;1136928;-81
2021/07/01 03:47:21;;;;;;;8.30;5.20;;;;;;;17.14;82.50;99856.73;4920175;58;1136692;-79
2021/07/01 03:52:27;;;;;;;9.43;5.70;;;;;;;17.09;82.32;99868.48;4797973;60;1136885;-80
2021/07/01 03:57:35;;;;;;;8.42;4.98;;;;;;;17.10;82.56;99871.98;4840962;59;1136771;-79
2021/07/01 04:02:41;;;;;;;5.47;4.97;;;;;;;17.10;82.50;99851.94;4867906;59;1136866;-81
2021/07/01 04:07:48;;;;;;;5.70;4.90;;;;;;;17.13;82.71;99873.77;4880253;59;1136754;-82
2021/07/01 04:12:55;;;;;;;6.43;5.80;;;;;;;17.15;83.07;99876.27;4833835;59;1136822;-83
2021/07/01 04:18:14;;;;;;;9.42;4.54;;;;;;;17.12;83.22;99877.45;4874856;59;1136730;-81
2021/07/01 04:23:38;;;;;;;8.43;5.50;;;;;;;17.09;83.68;99876.49;4880331;58;1136830;-81
2021/07/01 04:28:51;;;;;;;10.60;5.60;;;;;;;17.11;83.49;99872.31;4876999;58;1136705;-80
2021/07/01 04:33:58;;;;;;;8.20;6.13;;;;;;;17.12;83.46;99861.41;4880384;58;1138857;-79
2021/07/01 04:39:05;;;;;;;8.67;5.60;;;;;;;17.16;83.22;99861.91;4868635;58;1136766;-80
2021/07/01 04:44:13;;;;;;;6.85;4.33;;;;;;;17.27;83.23;99857.47;4833077;59;1136691;-79
2021/07/01 04:49:19;;;;;;;12.57;5.53;;;;;;;17.30;83.14;99861.13;4832620;59;1136942;-79
2021/07/01 04:54:41;;;;;;;6.57;5.90;;;;;;;17.29;83.07;99876.84;4857928;58;1138787;-81
2021/07/01 05:00:07;;;;;;;7.10;4.70;;;;;;;17.34;82.64;99888.34;4909888;58;1137047;-82
2021/07/01 05:05:31;;;;;;;5.47;4.93;;;;;;;17.40;82.58;99893.83;4909584;58;1136741;-81
2021/07/01 05:10:37;;;;;;;7.37;5.67;;;;;;;17.49;82.39;99887.90;4909681;58;1136850;-80
2021/07/01 05:15:44;;;;;;;11.87;6.13;;;;;;;17.52;82.12;99893.73;4907119;58;1136848;-80
2021/07/01 05:20:50;;;;;;;5.70;4.47;;;;;;;17.51;81.87;99895.23;4909630;58;1138785;-79
2021/07/01 05:26:00;;;;;;;9.60;4.40;;;;;;;17.52;81.82;99899.58;4732227;60;1136972;-81
2021/07/01 05:31:23;;;;;;;4.72;3.65;;;;;;;17.55;81.87;99892.55;4731617;60;1136881;-79
2021/07/01 05:36:47;;;;;;;9.77;5.30;;;;;;;17.63;81.78;99895.14;4785746;60;1136786;-80
2021/07/01 05:41:54;;;;;;;5.86;5.06;;;;;;;17.69;81.57;99879.75;4836017;59;1137210;-80
2021/07/01 05:47:00;;;;;;;6.17;4.30;;;;;;;17.80;81.58;99883.33;4866868;59;1137117;-79
2021/07/01 05:52:07;;;;;;;5.30;4.83;;;;;;;17.92;80.77;99889.06;4873328;59;1136729;-82
2021/07/01 05:57:13;;;;;;;6.87;4.37;;;;;;;17.97;80.70;99893.38;4894231;59;1136851;-83
2021/07/01 06:02:19;;;;;;;5.17;4.50;;;;;;;17.99;80.06;99898.55;4930767;57;1136782;-81
2021/07/01 06:07:26;;;;;;;5.90;5.03;;;;;;;18.01;80.25;99909.39;5022193;57;1136799;-80
2021/07/01 06:12:34;;;;;;;8.77;4.97;;;;;;;18.05;79.82;99907.16;5073892;57;1136921;-81
2021/07/01 06:17:40;;;;;;;5.20;4.67;;;;;;;18.05;79.79;99907.16;5073670;57;1136706;-81
2021/07/01 06:22:47;;;;;;;9.57;3.10;;;;;;;18.04;79.83;99918.38;4995856;56;1136616;-82
2021/07/01 06:27:53;;;;;;;5.80;4.30;;;;;;;18.12;79.83;99920.98;5003150;57;1136891;-80
2021/07/01 06:32:59;;;;;;;8.23;4.27;;;;;;;18.11;79.69;99907.28;5003290;57;1137089;-79
2021/07/01 06:38:11;;;;;;;4.90;4.50;;;;;;;18.22;79.57;99917.53;5009876;57;1136627;-84
2021/07/01 06:43:35;;;;;;;7.80;5.60;;;;;;;18.22;78.61;99936.77;4995909;57;1136887;-80
2021/07/01 06:49:01;;;;;;;6.57;5.07;;;;;;;18.15;78.74;99931.84;4972239;58;1136780;-80
2021/07/01 06:54:25;;;;;;;5.43;4.87;;;;;;;18.09;78.47;99933.39;4975031;58;1136896;-79
2021/07/01 06:59:36;;;;;;;5.50;4.67;;;;;;;18.04;78.98;99932.26;4966857;57;1136636;-82
2021/07/01 07:04:43;;;;;;;8.27;5.77;;;;;;;18.04;79.02;99948.31;4949926;58;1136808;-80
2021/07/01 07:09:50;;;;;;;8.30;5.77;;;;;;;18.05;78.95;99944.62;4968115;57;1136657;-79
2021/07/01 07:14:55;;;;;;;7.63;6.10;;;;;;;18.10;79.09;99940.91;4975122;57;1136950;-79
2021/07/01 07:20:03;;;;;;;12.67;5.97;;;;;;;18.17;79.12;99936.52;4964252;57;1137180;-79
2021/07/01 07:25:12;;;;;;;6.07;5.43;;;;;;;18.21;78.65;99933.27;4959035;58;1138866;-79
2021/07/01 07:30:19;;;;;;;7.70;4.47;;;;;;;18.22;78.22;99930.91;4951597;57;1136728;-79
2021/07/01 07:35:25;;;;;;;5.17;4.13;;;;;;;18.28;78.25;99936.89;4973654;57;1136903;-80
2021/07/01 07:40:32;;;;;;;4.00;3.70;;;;;;;18.33;76.91;99942.21;4957166;57;1136737;-79
2021/07/01 07:45:38;;;;;;;8.63;4.07;;;;;;;18.37;77.52;99942.98;4966721;58;1136637;-79
2021/07/01 07:50:50;;;;;;;5.60;3.92;;;;;;;18.42;76.75;99949.13;4981460;58;1136662;-80
2021/07/01 07:56:06;;;;;;;5.20;4.00;;;;;;;18.48;76.82;99939.04;4911248;57;1136727;-83
2021/07/01 08:01:12;;;;;;;4.10;3.70;;;;;;;18.58;76.65;99944.47;4959022;57;1136689;-84
2021/07/01 08:06:19;;;;;;;5.37;4.10;;;;;;;18.81;75.92;99955.58;4982670;57;1136546;-85
2021/07/01 08:11:25;;;;;;;8.95;3.92;;;;;;;18.94;76.15;99947.73;4881956;58;1136610;-80
2021/07/01 08:16:31;;;;;;;4.04;3.56;;;;;;;19.05;75.49;99954.45;5001395;57;1136503;-82
2021/07/01 08:21:36;;;;;;;2.77;2.58;;;;;;;19.15;75.41;99946.44;4983755;57;1136527;-83
2021/07/01 08:26:42;;;;;;;3.65;3.35;;;;;;;19.28;73.86;99939.87;4977773;57;1136538;-82
2021/07/01 08:31:48;;;;;;;3.87;3.55;;;;;;;19.36;73.71;99936.77;4982335;57;1136606;-82
2021/07/01 08:36:54;;;;;;;6.25;4.20;;;;;;;19.47;74.48;99942.46;4977592;57;1136574;-83
2021/07/01 08:42:04;;;;;;;4.55;3.50;;;;;;;19.53;72.42;99954.32;4988598;57;1136628;-86
2021/07/01 08:47:20;;;;;;;4.95;4.00;;;;;;;19.65;71.38;99946.08;4973105;57;1136521;-79
2021/07/01 08:52:30;;;;;;;3.77;3.57;;;;;;;19.87;72.52;99949.58;4941545;57;1136524;-78
2021/07/01 08:57:37;;;;;;;7.97;3.12;;;;;;;19.99;71.21;99948.05;4971561;57;1136710;-77
2021/07/01 09:02:47;;;;;;;8.28;4.40;;;;;;;20.07;72.06;99957.30;4976684;57;1136484;-87
2021/07/01 09:07:55;;;;;;;5.58;4.67;;;;;;;20.21;71.21;99948.31;4983206;57;1136647;-80
2021/07/01 09:13:04;;;;;;;5.78;5.28;;;;;;;20.24;70.87;99957.33;4971506;57;1136634;-84
2021/07/01 09:18:10;;;;;;;9.70;6.62;;;;;;;20.26;70.92;99965.20;4998788;57;1136513;-85
2021/07/01 09:23:17;;;;;;;7.33;5.67;;;;;;;20.17;70.02;99974.40;4987779;57;1136878;-82
2021/07/01 09:28:22;;;;;;;7.08;4.37;;;;;;;19.97;70.51;99984.48;4972879;57;1136561;-84
2021/07/01 09:33:28;;;;;;;9.18;5.30;;;;;;;19.98;71.11;99978.60;4973631;57;1136719;-88
2021/07/01 09:38:35;;;;;;;10.38;5.28;;;;;;;20.14;70.16;99971.62;4976440;57;1136492;-84
2021/07/01 09:43:42;;;;;;;5.33;4.83;;;;;;;20.35;69.36;99980.95;5003751;57;1138655;-79
2021/07/01 09:48:51;;;;;;;6.83;5.17;;;;;;;20.37;68.58;99974.09;5009602;57;1136588;-79
2021/07/01 09:53:57;;;;;;;9.03;4.25;;;;;;;20.33;68.16;99976.80;5004904;57;1136604;-85
2021/07/01 09:59:05;;;;;;;6.67;3.62;;;;;;;20.28;68.79;99968.01;5006656;57;1136501;-85
2021/07/01 10:04:11;;;;;;;3.83;3.52;;;;;;;20.32;68.93;99981.34;5024752;57;1136481;-86
2021/07/01 10:09:32;;;;;;;4.35;3.95;;;;;;;20.32;68.53;99980.00;5005854;57;1136667;-80
2021/07/01 10:14:41;;;;;;;7.37;4.17;;;;;;;20.43;69.50;99978.69;5005259;57;1136550;-80
2021/07/01 10:19:48;;;;;;;8.95;3.35;;;;;;;20.57;69.24;99975.57;5027624;57;1136643;-83
2021/07/01 10:24:59;;;;;;;4.05;3.60;;;;;;;20.67;68.07;99972.01;5004640;57;1136474;-82
2021/07/01 10:30:18;;;;;;;6.90;4.30;;;;;;;20.96;67.43;99982.51;5004184;57;1136569;-80
2021/07/01 10:35:38;;;;;;;4.45;4.05;;;;;;;21.09;66.45;99976.36;5082256;57;1136751;-79
2021/07/01 10:40:53;;;;;;;6.80;3.10;;;;;;;21.18;67.11;99973.83;5082368;57;1136580;-82
2021/07/01 10:46:00;;;;;;;7.78;3.52;;;;;;;21.23;66.18;99994.78;5067917;57;1136624;-83
2021/07/01 10:51:14;;;;;;;4.70;4.28;;;;;;;21.20;66.60;99989.28;5003710;57;1136633;-84
2021/07/01 10:56:40;;;;;;;7.17;4.35;;;;;;;21.13;66.60;99992.41;4923526;58;1136595;-83
2021/07/01 11:01:34;;;;;;;4.80;3.70;;;;;;;21.24;66.71;99992.38;4922661;58;1136750;-88
2021/07/01 11:06:44;;;;;;;4.53;3.42;;;;;;;21.25;66.00;99994.04;4931164;58;1136482;-84
2021/07/01 11:11:53;;;;;;;4.80;3.00;;;;;;;21.14;66.35;100013.42;4992258;57;1136528;-82
2021/07/01 11:17:01;;;;;;;10.68;2.90;;;;;;;20.96;66.26;100032.24;4942304;57;1138972;-82
2021/07/01 11:22:07;;;;;;;2.50;2.30;;;;;;;20.86;66.12;100043.05;4930252;57;1140828;-81
2021/07/01 11:27:15;;;;;;;2.47;2.27;;;;;;;20.74;67.44;100050.00;4942307;57;1138735;-85
2021/07/01 11:32:26;;;;;;;10.48;2.20;;;;;;;20.69;67.78;100057.30;4952393;57;1138650;-79
2021/07/01 11:37:42;;;;;;;1.62;1.52;;;;;;;20.88;67.43;100053.09;4988168;58;1140885;-82
2021/07/01 11:42:53;;;;;;;2.12;2.02;;;;;;;20.92;65.38;100054.37;4988139;58;1138643;-79
2021/07/01 11:48:00;;;;;;;2.85;2.33;;;;;;;20.89;65.82;100070.88;4985362;57;1138647;-80
2021/07/01 11:53:06;;;;;;;2.27;2.08;;;;;;;20.81;65.80;100079.08;4967326;57;1138728;-78
2021/07/01 11:58:13;;;;;;;2.33;2.20;;;;;;;20.76;66.30;100081.03;5032129;57;1138570;-86
2021/07/01 12:03:19;;;;;;;3.62;2.33;;;;;;;20.95;67.04;100076.80;5051453;57;1138751;-89
2021/07/01 12:08:25;;;;;;;2.42;2.33;;;;;;;21.02;66.94;100055.66;4924991;57;1138884;-79
2021/07/01 12:13:38;;;;;;;6.75;3.02;;;;;;;21.10;66.72;100067.27;4911038;57;1138861;-76
2021/07/01 12:18:59;;;;;;;7.50;2.67;;;;;;;20.98;69.20;100088.00;4911235;57;1138600;-88
2021/07/01 12:24:15;;;;;;;8.23;2.65;;;;;;;20.78;70.95;100084.33;4984877;57;1138627;-78
2021/07/01 12:29:23;;;;;;;5.08;3.62;;;;;;;20.80;73.50;100084.97;4983192;57;1138623;-81
2021/07/01 12:34:30;;;;;;;3.62;3.30;;;;;;;20.86;71.67;100078.83;4984710;57;1138678;-81
2021/07/01 12:39:47;;;;;;;4.72;4.03;;;;;;;20.80;69.80;100087.66;4984364;57;1138765;-82
2021/07/01 12:44:51;;;;;;;5.40;3.58;;;;;;;20.75;70.97;100083.91;4925215;57;1138747;-81
2021/07/01 12:50:00;;;;;;;9.03;4.08;;;;;;;20.83;71.97;100075.69;4910706;57;1138615;-85
2021/07/01 12:55:10;;;;;;;2.35;2.25;;;;;;;21.03;70.32;100073.97;4924512;58;1138820;-79
2021/07/01 13:00:17;;;;;;;10.34;3.64;;;;;;;21.18;70.17;100079.23;4934944;58;1145421;-81
2021/07/01 13:05:23;;;;;;;2.37;2.25;;;;;;;21.46;69.20;100074.64;4921064;58;1140820;-83
2021/07/01 13:10:29;;;;;;;2.60;1.70;;;;;;;21.80;69.12;100078.30;4919944;58;1138818;-79
2021/07/01 13:15:35;;;;;;;4.37;1.85;;;;;;;22.17;65.69;100091.77;4994343;57;1138826;-81
2021/07/01 13:20:41;;;;;;;4.20;1.45;;;;;;;22.26;66.20;100088.69;4994547;57;1138822;-80
2021/07/01 13:25:47;;;;;;;1.10;1.00;;;;;;;22.10;64.59;100102.54;4994302;57;1138632;-80
2021/07/01 13:30:54;;;;;;;4.95;0.90;;;;;;;22.25;63.15;100118.52;4994839;57;1138601;-84
2021/07/01 13:36:00;;;;;;;2.10;0.80;;;;;;;22.32;63.69;100107.22;4957232;57;1138723;-85
2021/07/01 13:41:05;;;;;;;1.07;0.70;;;;;;;22.35;63.77;100109.52;4926312;58;1138713;-80
2021/07/01 13:46:11;;;;;;;2.75;1.60;;;;;;;22.58;64.06;100112.66;4957965;57;1138754;-82
2021/07/01 13:51:22;;;;;;;6.12;1.00;;;;;;;22.52;59.64;100118.87;4938072;57;1138817;-80
2021/07/01 13:56:28;;;;;;;5.62;1.20;;;;;;;22.29;60.42;100122.48;4935590;57;1138651;-77
2021/07/01 14:01:34;;;;;;;3.50;0.65;;;;;;;22.22;61.33;100133.74;4934221;58;1138773;-83
2021/07/01 14:06:43;;;;;;;2.77;0.82;;;;;;;22.08;60.17;100148.53;4938110;57;1138742;-81
2021/07/01 14:11:49;;;;;;;1.37;0.90;;;;;;;21.73;61.39;100156.33;4930886;58;1138751;-81
2021/07/01 14:16:55;;;;;;;1.40;1.07;;;;;;;21.52;62.28;100159.97;4958603;57;1138655;-83
2021/07/01 14:22:06;;;;;;;0.70;0.70;;;;;;;21.40;62.80;100152.11;4927864;58;1138729;-85
2021/07/01 14:27:12;;;;;;;3.83;1.07;;;;;;;21.29;63.13;100154.84;5001557;57;1138584;-83
2021/07/01 14:32:39;;;;;;;1.02;0.80;;;;;;;21.16;63.37;100164.66;5019384;58;1138814;-82
2021/07/01 14:37:48;;;;;;;2.37;0.80;;;;;;;21.16;63.58;100164.66;4992461;58;1138583;-85
2021/07/01 14:43:05;;;;;;;0.60;0.60;;;;;;;21.32;64.01;100160.35;4998755;57;1138834;-81
2021/07/01 14:48:11;;;;;;;0.70;0.70;;;;;;;21.33;62.79;100165.53;5005671;57;1138746;-82
2021/07/01 14:53:34;;;;;;;2.15;1.07;;;;;;;21.16;62.96;100173.55;4996630;57;1138676;-81
2021/07/01 14:58:55;;;;;;;0.78;0.78;;;;;;;21.06;64.05;100180.63;4905049;59;1138806;-79
2021/07/01 15:04:03;;;;;;;1.65;1.10;;;;;;;21.03;63.76;100189.08;4829582;59;1138820;-83
2021/07/01 15:09:17;;;;;;;0.88;0.88;;;;;;;20.95;64.36;100184.34;4900770;57;1138859;-79
2021/07/01 15:14:24;;;;;;;2.30;0.98;;;;;;;20.94;64.81;100184.85;4894264;58;1138810;-84
2021/07/01 15:19:29;;;;;;;0.80;0.80;;;;;;;21.23;65.38;100178.52;4851694;60;1138788;-86
2021/07/01 15:24:35;;;;;;;1.85;0.85;;;;;;;21.49;63.54;100187.27;4964537;57;1138778;-80
2021/07/01 15:29:41;;;;;;;3.45;0.75;;;;;;;21.36;63.34;100196.09;4989325;57;1138652;-86
2021/07/01 15:34:47;;;;;;;1.00;1.00;;;;;;;21.31;63.00;100190.45;4986423;57;1138678;-84
2021/07/01 15:39:53;;;;;;;0.55;0.55;;;;;;;21.31;63.78;100197.18;4988776;57;1138738;-84
2021/07/01 15:44:59;;;;;;;1.85;0.53;;;;;;;21.46;62.79;100188.16;4989226;57;1138593;-81
2021/07/01 15:50:06;;;;;;;0.85;0.40;;;;;;;21.57;63.22;100192.47;4988771;57;1138543;-82
2021/07/01 15:55:13;;;;;;;3.42;0.90;;;;;;;21.63;62.91;100198.42;4988408;57;1138670;-81
2021/07/01 16:00:19;;;;;;;0.25;0.25;;;;;;;21.64;62.12;100200.09;4987975;57;1200859;-79
2021/07/01 16:05:25;;;;;;;0.24;0.24;;;;;;;21.46;62.80;100197.58;4989097;57;1138740;-90
2021/07/01 16:10:31;;;;;;;18.60;9.25;;;;;;;21.38;63.61;100199.41;4989309;57;1138712;-91
2021/07/01 16:15:39;;;;;;;9.13;5.45;;;;;;;21.42;63.42;100209.25;4989294;57;1140679;-85
2021/07/01 16:20:47;;;;;;;0.88;0.42;;;;;;;21.32;63.51;100220.88;4989132;57;1138704;-91
2021/07/01 16:25:53;;;;;;;0.20;0.20;;;;;;;21.33;64.18;100234.14;4989070;57;1138670;-83
2021/07/01 16:31:00;;;;;;;0.25;0.25;;;;;;;21.31;63.98;100236.19;4988174;57;1138841;-82
2021/07/01 16:36:06;;;;;;;5.50;0.57;;;;;;;21.08;64.04;100238.25;4946385;57;1138618;-85
2021/07/01 16:41:13;;;;;;;0.40;0.40;;;;;;;20.74;64.70;100234.94;4987893;57;1138579;-79
2021/07/01 16:46:22;;;;;;;0.78;0.60;;;;;;;20.47;65.65;100243.20;4987899;57;1138660;-85
2021/07/01 16:51:32;;;;;;;0.30;0.30;;;;;;;20.38;66.22;100247.55;4908067;58;1138935;-78
2021/07/01 16:56:50;;;;;;;9.60;6.08;;;;;;;20.25;66.89;100248.20;4988386;57;1138892;-82
2021/07/01 17:02:01;;;;;;;0.68;0.62;;;;;;;20.25;66.89;100248.20;4993502;57;1138586;-80
2021/07/01 17:07:09;;;;;;;0.40;0.40;;;;;;;20.29;67.22;100256.20;4917964;58;1138647;-84
2021/07/01 17:12:15;;;;;;;0.30;0.30;;;;;;;20.19;67.16;100261.02;4918219;58;1138677;-83
2021/07/01 17:17:26;;;;;;;4.42;0.72;;;;;;;19.97;67.18;100260.97;4930522;58;1138829;-78
2021/07/01 17:22:36;;;;;;;1.05;0.98;;;;;;;19.84;67.12;100266.16;4918123;58;1138869;-77
2021/07/01 17:27:43;;;;;;;0.42;0.40;;;;;;;19.62;67.11;100268.40;4982200;57;1138560;-78
2021/07/01 17:32:51;;;;;;;1.65;0.53;;;;;;;19.62;67.11;100268.40;4998121;57;1138558;-84
2021/07/01 17:37:59;;;;;;;2.30;1.75;;;;;;;19.52;67.81;100273.20;4997837;57;1138709;-82
2021/07/01 17:43:05;;;;;;;0.33;0.33;;;;;;;19.47;67.69;100282.27;4995749;57;1138588;-82
2021/07/01 17:48:12;;;;;;;0.72;0.30;;;;;;;19.40;67.81;100288.85;4997853;57;1138744;-82
2021/07/01 17:53:18;;;;;;;0.85;0.50;;;;;;;19.33;68.10;100291.45;4989706;57;1138597;-82
2021/07/01 17:58:24;;;;;;;1.27;0.60;;;;;;;19.27;68.43;100288.64;4918476;58;1138846;-85
2021/07/01 18:03:30;;;;;;;0.50;0.50;;;;;;;19.30;68.67;100299.01;4948245;57;1138868;-81
2021/07/01 18:08:36;;;;;;;0.88;0.70;;;;;;;19.25;69.03;100300.88;4999698;57;1138716;-80
2021/07/01 18:13:41;;;;;;;0.40;0.40;;;;;;;19.21;69.36;100305.47;4999962;57;1138731;-80
2021/07/01 18:18:52;;;;;;;0.60;0.60;;;;;;;19.13;69.89;100317.58;4999729;57;1138610;-83
2021/07/01 18:23:56;;;;;;;0.62;0.62;;;;;;;19.05;70.19;100331.05;4997068;57;1138683;-82
2021/07/01 18:29:02;;;;;;;0.50;0.50;;;;;;;18.97;70.55;100340.80;4998884;57;1138713;-82
2021/07/01 18:34:08;;;;;;;0.55;0.40;;;;;;;18.80;70.77;100335.22;4967515;57;1138656;-81
2021/07/01 18:39:13;;;;;;;1.30;0.68;;;;;;;18.66;71.25;100341.32;5030523;57;1138679;-83
2021/07/01 18:44:19;;;;;;;0.78;0.62;;;;;;;18.59;71.80;100346.56;5077501;57;1138659;-83
2021/07/01 18:49:25;;;;;;;0.57;0.57;;;;;;;18.55;71.81;100359.94;5058175;57;1138847;-82
2021/07/01 18:54:31;;;;;;;6.83;0.60;;;;;;;18.46;71.88;100361.50;4995778;58;1138670;-84
2021/07/01 18:59:37;;;;;;;0.40;0.40;;;;;;;18.36;71.70;100364.86;5004129;57;1138677;-79
2021/07/01 19:04:43;;;;;;;0.50;0.50;;;;;;;18.27;72.28;100369.42;4999236;58;1138779;-84
2021/07/01 19:09:48;;;;;;;0.78;0.47;;;;;;;18.22;72.37;100374.45;4998645;57;1138640;-80
2021/07/01 19:14:54;;;;;;;0.40;0.40;;;;;;;18.12;72.57;100373.31;4999816;57;1138577;-87
2021/07/01 19:20:00;;;;;;;0.60;0.60;;;;;;;18.05;73.03;100376.33;5003968;57;1138695;-79
2021/07/01 19:25:06;;;;;;;0.90;0.90;;;;;;;18.04;73.14;100393.39;5010057;57;1138833;-86
2021/07/01 19:30:13;;;;;;;1.37;1.30;;;;;;;18.02;73.18;100403.45;4985105;57;1138653;-78
2021/07/01 19:35:19;;;;;;;1.00;1.00;;;;;;;17.98;73.20;100409.30;4987177;58;1138696;-79
2021/07/01 19:40:25;;;;;;;1.77;1.07;;;;;;;17.84;73.25;100400.13;4916892;58;1138650;-84
2021/07/01 19:45:31;;;;;;;1.85;1.37;;;;;;;17.75;73.57;100413.99;4920904;58;1138743;-77
2021/07/01 19:50:37;;;;;;;1.35;1.25;;;;;;;17.76;73.45;100415.66;4920487;58;1138960;-79
2021/07/01 19:55:43;;;;;;;1.67;1.57;;;;;;;17.76;73.50;100404.97;4931076;57;1138721;-78
2021/07/01 20:00:49;;;;;;;1.60;1.30;;;;;;;17.73;73.38;100393.76;5000320;57;1138864;-82
2021/07/01 20:05:56;;;;;;;1.20;1.20;;;;;;;17.86;73.36;100393.61;5055805;57;1138793;-86
2021/07/01 20:11:02;;;;;;;1.10;1.07;;;;;;;17.84;73.24;100384.08;5038993;57;1138692;-81
2021/07/01 20:16:09;;;;;;;5.90;1.50;;;;;;;17.81;73.45;100381.23;5085582;57;1138595;-77
2021/07/01 20:21:15;;;;;;;1.37;1.30;;;;;;;17.75;73.56;100389.92;5068201;57;1138786;-79
2021/07/01 20:26:21;;;;;;;1.30;1.30;;;;;;;17.70;73.88;100385.59;4955734;58;1138641;-77
2021/07/01 20:31:27;;;;;;;1.20;0.80;;;;;;;17.63;74.17;100379.70;4981213;58;1138821;-82
2021/07/01 20:36:35;;;;;;;1.35;1.17;;;;;;;17.55;74.54;100385.91;4945888;58;1138814;-76
2021/07/01 20:41:49;;;;;;;1.12;1.12;;;;;;;17.55;74.85;100389.41;4999456;58;1138724;-82
2021/07/01 20:46:51;;;;;;;1.00;1.00;;;;;;;17.53;74.69;100390.58;5000478;58;1138785;-83
2021/07/01 20:51:57;;;;;;;1.20;1.20;;;;;;;17.50;74.76;100387.73;5001268;57;1139002;-83
2021/07/01 20:57:03;;;;;;;1.30;1.30;;;;;;;17.51;74.76;100392.08;4985642;57;1138802;-80
2021/07/01 21:02:09;;;;;;;0.90;0.90;;;;;;;17.46;74.90;100389.55;5001629;58;1138632;-80
2021/07/01 21:07:15;;;;;;;1.30;1.30;;;;;;;17.40;75.02;100395.09;4954980;58;1138942;-83
2021/07/01 21:12:24;;;;;;;1.83;1.67;;;;;;;17.40;75.13;100404.95;4998146;57;1138595;-82
2021/07/01 21:17:31;;;;;;;1.23;1.23;;;;;;;17.37;75.15;100409.28;5078298;57;1138865;-82
2021/07/01 21:22:42;;;;;;;1.33;1.33;;;;;;;17.39;75.22;100415.30;5022872;57;1138953;-82
2021/07/01 21:27:48;;;;;;;1.40;1.40;;;;;;;17.44;75.19;100418.30;5021800;57;1138782;-90
2021/07/01 21:32:54;;;;;;;1.53;1.43;;;;;;;17.44;75.29;100416.45;5001029;57;1138758;-80
2021/07/01 21:38:02;;;;;;;2.00;1.90;;;;;;;17.47;75.28;100418.80;5005706;57;1138753;-81
2021/07/01 21:43:09;;;;;;;6.40;1.70;;;;;;;17.47;75.21;100428.16;4995359;57;1138604;-83
2021/07/01 21:48:16;;;;;;;4.27;2.33;;;;;;;17.49;75.32;100430.17;4995869;57;1138639;-83
2021/07/01 21:53:22;;;;;;;3.67;1.97;;;;;;;17.49;75.24;100419.48;4995622;57;1138686;-82
2021/07/01 21:58:28;;;;;;;1.93;1.83;;;;;;;17.47;75.32;100427.33;4995791;57;1138819;-82
2021/07/01 22:03:34;;;;;;;2.02;1.92;;;;;;;17.46;75.42;100421.64;5021986;57;1138810;-82
2021/07/01 22:08:40;;;;;;;1.70;1.60;;;;;;;17.46;75.43;100431.84;4994984;58;1138777;-77
2021/07/01 22:13:48;;;;;;;1.70;1.60;;;;;;;17.46;75.61;100441.70;4994567;58;1138687;-79
2021/07/01 22:18:54;;;;;;;1.73;1.70;;;;;;;17.46;75.55;100445.20;4994498;58;1138580;-81
2021/07/01 22:24:00;;;;;;;1.43;1.37;;;;;;;17.40;75.67;100433.02;4994645;58;1138657;-80
2021/07/01 22:29:05;;;;;;;1.70;1.60;;;;;;;17.38;76.09;100422.98;4994790;58;1138890;-81
2021/07/01 22:34:11;;;;;;;2.20;2.10;;;;;;;17.37;76.16;100423.98;5013036;57;1138816;-83
2021/07/01 22:39:17;;;;;;;1.90;1.80;;;;;;;17.38;76.40;100418.97;5077538;57;1138771;-86
2021/07/01 22:44:23;;;;;;;2.30;2.00;;;;;;;17.35;76.47;100421.97;5077602;57;1138671;-83
2021/07/01 22:49:29;;;;;;;2.37;2.27;;;;;;;17.35;76.78;100430.83;5013157;57;1138626;-81
2021/07/01 22:54:36;;;;;;;3.22;3.00;;;;;;;17.36;76.72;100427.16;5029363;57;1138729;-81
2021/07/01 22:59:41;;;;;;;3.62;3.33;;;;;;;17.38;76.65;100426.50;4997743;58;1138679;-82
2021/07/01 23:04:47;;;;;;;3.47;3.03;;;;;;;17.36;76.93;100423.64;4997868;58;1138699;-77
2021/07/01 23:09:53;;;;;;;2.76;2.58;;;;;;;17.31;77.15;100424.63;4998335;57;1138781;-83
2021/07/01 23:14:59;;;;;;;4.60;3.20;;;;;;;17.32;77.45;100427.14;4998120;57;1138674;-83
2021/07/01 23:20:08;;;;;;;3.20;3.00;;;;;;;17.26;77.35;100418.46;4998035;58;1138712;-81
2021/07/01 23:25:15;;;;;;;4.17;2.50;;;;;;;17.23;77.60;100418.28;5041972;57;1138553;-85